Base San Martin, Antarctica

8:23 PM GMT on July 01, 2015 (GMT +0000)
Rothera Point Airport | | Change Station
CLOSE
Current Station
Airport
Location: Rothera Point Airport,
Elevation: 0 ft
Nearby Weather Stations

Elev 0 ft 67.57 °S, 68.13 °W | Updated 1 hour ago

Clear
Clear
95 °F
Feels Like 98 °F
N
17
Wind Variable Wind from ENE

Today
High -- | Low -- °F
--% Chance of Precip.
Yesterday
High -- | Low -- °F
Precip. -- in
3:59 PM 5:04 PM
Full, 100% visible
Pressure 29.78 in
Visibility -9999.0 miles
Clouds
Heat Index 98 °F
Dew Point 66 °F
Humidity 39%
Rainfall 0.00 in
Snow Depth Not available.
UV Not available.
Pollen Not available.
Air Quality Not available.
Flu Activity Not available.
METAR AAXX 011856Z 01194 METAR MRLB 78774 011900Z 07015KT CAVOK 35/19 A2978 BKN250

More Conditions Fewer Conditions

Pressure 29.78 in
Visibility -9999.0 miles
Clouds
Heat Index 98 °F
Dew Point 66 °F
Humidity 39%
Rainfall 0.00 in
Snow Depth Not available.
UV Not available.
Pollen Not available.
Air Quality Not available.
Flu Activity Not available.
METAR AAXX 011856Z 01194 METAR MRLB 78774 011900Z 07015KT CAVOK 35/19 A2978 BKN250

More Conditions Fewer Conditions

10-Day Weather Forecast

×

Almanac

Astronomy

Jul. 01, 2015 Rise Set
Actual Time
Civil Twilight
Nautical Twilight
Astronomical Twilight
Moon
Length of Visible Light
Length of Day
Tomorrow will be .
, % of the Moon is Illuminated

Today's Extremes

Country Highs Country Lows

Community

WunderPhotos

Upload Photos

1,834,275 photos uploaded!

WunderBlogs® & News

Nearby

Air Quality

  Air Quality AQ Index Pollutant
Not available.

Snow Depth

Station Depth Elevation

Earthquake Activity

City Distance Mag. Time & Date
Minimum magnitude displayed is 2.5.

Coastal Water Temperatures

Place Temperature

Stations

Nearby Weather Stations

Station Location Temp. Windchill Dew Point Humidity Wind Precip. Elev Updated Type